Aviation Digital Data Service (ADDS)

Output produced by METARs form (0543 UTC 23 November 2014)
found at http://aviationweather.gov/adds/metars/
 
KAUG 230525Z 2306/2406 21007KT P6SM BKN035 
     FM232200 23008KT P6SM SCT035 BKN080